sensor_id;sensor_type;location;lat;lon;timestamp;pressure;altitude;pressure_sealevel;temperature;humidity
48800;BME280;34611;47.964;7.982;2023-12-20T00:04:22;96924.91;;;10.41;51.15
48800;BME280;34611;47.964;7.982;2023-12-20T00:11:23;96938.75;;;10.42;51.19
48800;BME280;34611;47.964;7.982;2023-12-20T00:18:23;96924.09;;;10.41;51.20
48800;BME280;34611;47.964;7.982;2023-12-20T00:25:23;96907.56;;;10.42;51.17
48800;BME280;34611;47.964;7.982;2023-12-20T00:32:24;96925.63;;;10.43;51.14
48800;BME280;34611;47.964;7.982;2023-12-20T00:39:24;96909.22;;;10.43;51.13
48800;BME280;34611;47.964;7.982;2023-12-20T00:46:24;96917.00;;;10.43;51.31
48800;BME280;34611;47.964;7.982;2023-12-20T00:53:25;96898.81;;;10.43;51.25
48800;BME280;34611;47.964;7.982;2023-12-20T01:00:25;96885.00;;;10.42;51.38
48800;BME280;34611;47.964;7.982;2023-12-20T01:07:25;96894.44;;;10.43;51.25
48800;BME280;34611;47.964;7.982;2023-12-20T01:14:25;96891.84;;;10.43;51.36
48800;BME280;34611;47.964;7.982;2023-12-20T01:21:26;96909.09;;;10.44;51.41
48800;BME280;34611;47.964;7.982;2023-12-20T01:28:26;96903.06;;;10.44;51.62
48800;BME280;34611;47.964;7.982;2023-12-20T01:35:26;96905.69;;;10.44;51.63
48800;BME280;34611;47.964;7.982;2023-12-20T01:42:26;96917.59;;;10.46;51.60
48800;BME280;34611;47.964;7.982;2023-12-20T01:49:27;96927.28;;;10.44;51.53
48800;BME280;34611;47.964;7.982;2023-12-20T01:56:28;96928.81;;;10.47;51.73
48800;BME280;34611;47.964;7.982;2023-12-20T02:03:28;96927.28;;;10.44;51.60
48800;BME280;34611;47.964;7.982;2023-12-20T02:10:29;96930.47;;;10.48;51.57
48800;BME280;34611;47.964;7.982;2023-12-20T02:17:29;96926.19;;;10.47;51.85
48800;BME280;34611;47.964;7.982;2023-12-20T02:24:30;96921.00;;;10.47;51.53
48800;BME280;34611;47.964;7.982;2023-12-20T02:31:30;96914.88;;;10.48;51.84
48800;BME280;34611;47.964;7.982;2023-12-20T02:38:30;96902.00;;;10.46;51.92
48800;BME280;34611;47.964;7.982;2023-12-20T02:45:31;96908.81;;;10.47;51.74
48800;BME280;34611;47.964;7.982;2023-12-20T02:52:31;96909.69;;;10.48;51.94
48800;BME280;34611;47.964;7.982;2023-12-20T02:59:32;96911.44;;;10.47;51.83
48800;BME280;34611;47.964;7.982;2023-12-20T03:06:32;96911.44;;;10.47;52.02
48800;BME280;34611;47.964;7.982;2023-12-20T03:13:32;96926.09;;;10.48;51.90
48800;BME280;34611;47.964;7.982;2023-12-20T03:20:32;96926.09;;;10.48;51.84
48800;BME280;34611;47.964;7.982;2023-12-20T03:27:38;96929.63;;;10.47;52.05
48800;BME280;34611;47.964;7.982;2023-12-20T03:34:39;96946.88;;;10.48;51.94
48800;BME280;34611;47.964;7.982;2023-12-20T03:41:39;96951.25;;;10.48;52.15
48800;BME280;34611;47.964;7.982;2023-12-20T03:48:39;96947.69;;;10.49;52.17
48800;BME280;34611;47.964;7.982;2023-12-20T03:55:39;96955.38;;;10.50;52.10
48800;BME280;34611;47.964;7.982;2023-12-20T04:02:40;96954.66;;;10.48;52.00
48800;BME280;34611;47.964;7.982;2023-12-20T04:09:41;96962.34;;;10.50;52.07
48800;BME280;34611;47.964;7.982;2023-12-20T04:16:41;96958.91;;;10.49;52.30
48800;BME280;34611;47.964;7.982;2023-12-20T04:23:42;96954.56;;;10.50;52.15
48800;BME280;34611;47.964;7.982;2023-12-20T04:30:42;96955.38;;;10.50;52.22
48800;BME280;34611;47.964;7.982;2023-12-20T04:37:43;96979.69;;;10.49;52.35
48800;BME280;34611;47.964;7.982;2023-12-20T04:44:43;96986.56;;;10.50;52.34
48800;BME280;34611;47.964;7.982;2023-12-20T04:51:43;96996.13;;;10.50;52.46
48800;BME280;34611;47.964;7.982;2023-12-20T04:58:44;97002.97;;;10.51;52.42
48800;BME280;34611;47.964;7.982;2023-12-20T05:05:44;96980.53;;;10.50;52.28
48800;BME280;34611;47.964;7.982;2023-12-20T05:12:44;96994.34;;;10.50;52.35
48800;BME280;34611;47.964;7.982;2023-12-20T05:19:44;97001.19;;;10.51;52.34
48800;BME280;34611;47.964;7.982;2023-12-20T05:26:45;96999.41;;;10.52;52.39
48800;BME280;34611;47.964;7.982;2023-12-20T05:33:45;97001.19;;;10.51;52.67
48800;BME280;34611;47.964;7.982;2023-12-20T05:40:45;97017.59;;;10.52;52.57
48800;BME280;34611;47.964;7.982;2023-12-20T05:47:45;97022.81;;;10.52;52.67
48800;BME280;34611;47.964;7.982;2023-12-20T05:54:46;97019.28;;;10.53;52.65
48800;BME280;34611;47.964;7.982;2023-12-20T06:01:46;97021.88;;;10.53;52.56
48800;BME280;34611;47.964;7.982;2023-12-20T06:08:46;97034.88;;;10.53;52.65
48800;BME280;34611;47.964;7.982;2023-12-20T06:15:46;97043.47;;;10.53;52.61
48800;BME280;34611;47.964;7.982;2023-12-20T06:22:46;97045.25;;;10.53;52.80
48800;BME280;34611;47.964;7.982;2023-12-20T06:29:47;97053.88;;;10.53;52.67
48800;BME280;34611;47.964;7.982;2023-12-20T06:36:47;97051.28;;;10.53;52.69
48800;BME280;34611;47.964;7.982;2023-12-20T06:43:47;97058.16;;;10.55;52.71
48800;BME280;34611;47.964;7.982;2023-12-20T06:50:48;97071.16;;;10.55;52.60
48800;BME280;34611;47.964;7.982;2023-12-20T06:57:48;97078.09;;;10.54;52.89
48800;BME280;34611;47.964;7.982;2023-12-20T07:04:48;97089.34;;;10.55;52.84
48800;BME280;34611;47.964;7.982;2023-12-20T07:11:48;97095.47;;;10.53;52.75
48800;BME280;34611;47.964;7.982;2023-12-20T07:18:49;97102.34;;;10.55;52.88
48800;BME280;34611;47.964;7.982;2023-12-20T07:25:49;97112.72;;;10.55;52.86
48800;BME280;34611;47.964;7.982;2023-12-20T07:32:49;97120.38;;;10.56;52.72
48800;BME280;34611;47.964;7.982;2023-12-20T07:39:50;97132.69;;;10.54;53.04
48800;BME280;34611;47.964;7.982;2023-12-20T07:46:50;97139.53;;;10.55;52.90
48800;BME280;34611;47.964;7.982;2023-12-20T07:53:51;97136.13;;;10.55;53.07
48800;BME280;34611;47.964;7.982;2023-12-20T08:00:51;97155.13;;;10.55;52.86
48800;BME280;34611;47.964;7.982;2023-12-20T08:07:51;97137.75;;;10.56;53.06
48800;BME280;34611;47.964;7.982;2023-12-20T08:14:52;97153.34;;;10.56;52.81
48800;BME280;34611;47.964;7.982;2023-12-20T08:21:52;97162.81;;;10.57;52.87
48800;BME280;34611;47.964;7.982;2023-12-20T08:28:52;97161.97;;;10.56;53.06
48800;BME280;34611;47.964;7.982;2023-12-20T08:35:52;97169.78;;;10.56;53.35
48800;BME280;34611;47.964;7.982;2023-12-20T08:42:53;97168.84;;;10.57;52.95
48800;BME280;34611;47.964;7.982;2023-12-20T08:49:53;97176.75;;;10.56;52.98
48800;BME280;34611;47.964;7.982;2023-12-20T08:56:58;97177.56;;;10.56;53.16
48800;BME280;34611;47.964;7.982;2023-12-20T09:03:58;97175.69;;;10.58;53.12
48800;BME280;34611;47.964;7.982;2023-12-20T09:10:58;97189.75;;;10.56;52.98
48800;BME280;34611;47.964;7.982;2023-12-20T09:17:59;97197.44;;;10.57;52.95
48800;BME280;34611;47.964;7.982;2023-12-20T09:24:59;97208.66;;;10.58;53.17
48800;BME280;34611;47.964;7.982;2023-12-20T09:32:00;97212.94;;;10.59;53.05
48800;BME280;34611;47.964;7.982;2023-12-20T09:39:00;97219.06;;;10.58;53.33
48800;BME280;34611;47.964;7.982;2023-12-20T09:46:00;97220.84;;;10.57;53.18
48800;BME280;34611;47.964;7.982;2023-12-20T09:53:03;97225.91;;;10.59;53.10
48800;BME280;34611;47.964;7.982;2023-12-20T10:00:05;97210.31;;;10.59;53.06
48800;BME280;34611;47.964;7.982;2023-12-20T10:07:12;97218.13;;;10.59;53.19
48800;BME280;34611;47.964;7.982;2023-12-20T10:14:13;97209.47;;;10.58;53.21
48800;BME280;34611;47.964;7.982;2023-12-20T10:21:14;97205.13;;;10.59;53.38
48800;BME280;34611;47.964;7.982;2023-12-20T10:28:15;97211.97;;;10.60;53.33
48800;BME280;34611;47.964;7.982;2023-12-20T10:35:21;97204.97;;;10.60;53.12
48800;BME280;34611;47.964;7.982;2023-12-20T10:42:27;97204.16;;;10.60;53.18
48800;BME280;34611;47.964;7.982;2023-12-20T10:49:29;97189.53;;;10.59;53.28
48800;BME280;34611;47.964;7.982;2023-12-20T10:56:31;97195.53;;;10.59;53.21
48800;BME280;34611;47.964;7.982;2023-12-20T11:03:32;97194.59;;;10.60;53.22
48800;BME280;34611;47.964;7.982;2023-12-20T11:10:41;97198.97;;;10.60;53.22
48800;BME280;34611;47.964;7.982;2023-12-20T11:17:47;97193.75;;;10.60;53.50
48800;BME280;34611;47.964;7.982;2023-12-20T11:24:54;97188.56;;;10.60;53.49
48800;BME280;34611;47.964;7.982;2023-12-20T11:31:59;97191.88;;;10.62;53.41
48800;BME280;34611;47.964;7.982;2023-12-20T11:38:59;97187.63;;;10.61;53.26
48800;BME280;34611;47.964;7.982;2023-12-20T11:46:06;97186.78;;;10.60;53.38
48800;BME280;34611;47.964;7.982;2023-12-20T11:53:07;97174.63;;;10.61;53.30
48800;BME280;34611;47.964;7.982;2023-12-20T12:00:07;97167.78;;;10.60;53.52
48800;BME280;34611;47.964;7.982;2023-12-20T12:07:17;97160.69;;;10.62;53.51
48800;BME280;34611;47.964;7.982;2023-12-20T12:14:17;97159.84;;;10.61;53.64
48800;BME280;34611;47.964;7.982;2023-12-20T12:21:19;97151.09;;;10.62;53.55
48800;BME280;34611;47.964;7.982;2023-12-20T12:28:20;97165.88;;;10.62;53.48
48800;BME280;34611;47.964;7.982;2023-12-20T12:35:21;97153.34;;;10.67;54.27
48800;BME280;34611;47.964;7.982;2023-12-20T12:42:21;97153.59;;;10.64;53.92
48800;BME280;34611;47.964;7.982;2023-12-20T12:49:22;97162.09;;;10.66;53.76
48800;BME280;34611;47.964;7.982;2023-12-20T12:56:22;97170.00;;;10.64;53.98
48800;BME280;34611;47.964;7.982;2023-12-20T13:03:23;97159.59;;;10.64;53.68
48800;BME280;34611;47.964;7.982;2023-12-20T13:10:24;97157.84;;;10.65;53.95
48800;BME280;34611;47.964;7.982;2023-12-20T13:17:24;97143.19;;;10.64;54.00
48800;BME280;34611;47.964;7.982;2023-12-20T13:24:24;97151.81;;;10.64;53.92
48800;BME280;34611;47.964;7.982;2023-12-20T13:31:24;97151.81;;;10.64;53.74
48800;BME280;34611;47.964;7.982;2023-12-20T13:38:25;97150.16;;;10.63;54.02
48800;BME280;34611;47.964;7.982;2023-12-20T13:45:25;97150.06;;;10.65;53.74
48800;BME280;34611;47.964;7.982;2023-12-20T13:52:25;97152.66;;;10.65;54.01
48800;BME280;34611;47.964;7.982;2023-12-20T13:59:25;97155.25;;;10.65;53.86
48800;BME280;34611;47.964;7.982;2023-12-20T14:06:26;97150.06;;;10.65;53.86
48800;BME280;34611;47.964;7.982;2023-12-20T14:13:26;97143.06;;;10.65;53.81
48800;BME280;34611;47.964;7.982;2023-12-20T14:20:26;97144.84;;;10.65;53.97
48800;BME280;34611;47.964;7.982;2023-12-20T14:27:27;97142.09;;;10.66;54.03
48800;BME280;34611;47.964;7.982;2023-12-20T14:34:30;97135.28;;;10.65;53.97
48800;BME280;34611;47.964;7.982;2023-12-20T14:41:30;97136.09;;;10.66;54.06
48800;BME280;34611;47.964;7.982;2023-12-20T14:48:30;97131.72;;;10.66;54.10
48800;BME280;34611;47.964;7.982;2023-12-20T14:55:32;97134.31;;;10.66;53.90
48800;BME280;34611;47.964;7.982;2023-12-20T15:02:33;97139.50;;;10.66;53.88
48800;BME280;34611;47.964;7.982;2023-12-20T15:09:34;97140.34;;;10.67;54.00
48800;BME280;34611;47.964;7.982;2023-12-20T15:16:35;97155.97;;;10.67;53.98
48800;BME280;34611;47.964;7.982;2023-12-20T15:23:35;97160.19;;;10.68;54.13
48800;BME280;34611;47.964;7.982;2023-12-20T15:30:35;97135.28;;;10.65;53.86
48800;BME280;34611;47.964;7.982;2023-12-20T15:37:37;97136.09;;;10.66;54.08
48800;BME280;34611;47.964;7.982;2023-12-20T15:44:37;97129.97;;;10.67;53.89
48800;BME280;34611;47.964;7.982;2023-12-20T15:51:37;97132.56;;;10.67;53.92
48800;BME280;34611;47.964;7.982;2023-12-20T15:58:38;97147.19;;;10.68;54.09
48800;BME280;34611;47.964;7.982;2023-12-20T16:05:38;97139.34;;;10.90;54.95
48800;BME280;34611;47.964;7.982;2023-12-20T16:12:38;97132.06;;;10.73;55.10
48800;BME280;34611;47.964;7.982;2023-12-20T16:19:39;97130.41;;;10.72;54.78
48800;BME280;34611;47.964;7.982;2023-12-20T16:26:39;97134.78;;;10.71;54.58
48800;BME280;34611;47.964;7.982;2023-12-20T16:33:40;97136.56;;;10.71;54.64
48800;BME280;34611;47.964;7.982;2023-12-20T16:40:40;97140.81;;;10.72;54.45
48800;BME280;34611;47.964;7.982;2023-12-20T16:47:41;97133.97;;;10.71;54.63
48800;BME280;34611;47.964;7.982;2023-12-20T16:54:41;97136.91;;;10.78;54.18
48800;BME280;34611;47.964;7.982;2023-12-20T17:01:41;97147.66;;;10.73;54.63
48800;BME280;34611;47.964;7.982;2023-12-20T17:08:45;97146.00;;;10.72;54.67
48800;BME280;34611;47.964;7.982;2023-12-20T17:15:45;97155.59;;;10.71;54.44
48800;BME280;34611;47.964;7.982;2023-12-20T17:22:46;97155.59;;;10.71;54.62
48800;BME280;34611;47.964;7.982;2023-12-20T17:29:46;97149.56;;;10.71;54.60
48800;BME280;34611;47.964;7.982;2023-12-20T17:36:46;97149.41;;;10.72;54.61
48800;BME280;34611;47.964;7.982;2023-12-20T17:43:47;97147.19;;;10.79;54.78
48800;BME280;34611;47.964;7.982;2023-12-20T17:50:47;97164.09;;;10.73;54.76
48800;BME280;34611;47.964;7.982;2023-12-20T17:57:48;97170.22;;;10.72;54.86
48800;BME280;34611;47.964;7.982;2023-12-20T18:04:48;97157.22;;;10.72;54.75
48800;BME280;34611;47.964;7.982;2023-12-20T18:11:51;97185.81;;;10.72;54.72
48800;BME280;34611;47.964;7.982;2023-12-20T18:18:51;97169.41;;;10.72;54.80
48800;BME280;34611;47.964;7.982;2023-12-20T18:25:51;97177.19;;;10.72;54.69
48800;BME280;34611;47.964;7.982;2023-12-20T18:32:53;97181.59;;;10.71;54.72
48800;BME280;34611;47.964;7.982;2023-12-20T18:39:53;97181.47;;;10.73;54.68
48800;BME280;34611;47.964;7.982;2023-12-20T18:46:54;97182.41;;;10.72;54.80
48800;BME280;34611;47.964;7.982;2023-12-20T18:53:54;97158.19;;;10.71;54.54
48800;BME280;34611;47.964;7.982;2023-12-20T19:00:55;97144.22;;;10.72;54.68
48800;BME280;34611;47.964;7.982;2023-12-20T19:07:56;97146.81;;;10.72;54.64
48800;BME280;34611;47.964;7.982;2023-12-20T19:14:56;97153.44;;;10.77;55.09
48800;BME280;34611;47.964;7.982;2023-12-20T19:21:56;97147.53;;;10.74;54.93
48800;BME280;34611;47.964;7.982;2023-12-20T19:28:57;97125.09;;;10.73;54.99
48800;BME280;34611;47.964;7.982;2023-12-20T19:35:57;97103.47;;;10.73;54.72
48800;BME280;34611;47.964;7.982;2023-12-20T19:42:57;97102.09;;;10.90;54.87
48800;BME280;34611;47.964;7.982;2023-12-20T19:49:58;97083.75;;;10.91;55.20
48800;BME280;34611;47.964;7.982;2023-12-20T19:56:58;97081.41;;;10.88;55.04
48800;BME280;34611;47.964;7.982;2023-12-20T20:03:59;97084.81;;;10.89;55.00
48800;BME280;34611;47.964;7.982;2023-12-20T20:10:59;97083.31;;;10.86;54.98
48800;BME280;34611;47.964;7.982;2023-12-20T20:18:00;97071.00;;;10.88;55.53
48800;BME280;34611;47.964;7.982;2023-12-20T20:25:00;97054.69;;;10.86;55.17
48800;BME280;34611;47.964;7.982;2023-12-20T20:32:00;97038.41;;;10.84;55.12
48800;BME280;34611;47.964;7.982;2023-12-20T20:39:00;97038.41;;;10.84;55.22
48800;BME280;34611;47.964;7.982;2023-12-20T20:46:01;97033.31;;;10.83;55.28
48800;BME280;34611;47.964;7.982;2023-12-20T20:53:02;97043.72;;;10.83;55.12
48800;BME280;34611;47.964;7.982;2023-12-20T21:00:02;97039.34;;;10.83;54.92
48800;BME280;34611;47.964;7.982;2023-12-20T21:07:03;97054.13;;;10.83;55.19
48800;BME280;34611;47.964;7.982;2023-12-20T21:14:03;97051.50;;;10.83;55.14
48800;BME280;34611;47.964;7.982;2023-12-20T21:21:03;97037.69;;;10.82;55.20
48800;BME280;34611;47.964;7.982;2023-12-20T21:28:04;97027.28;;;10.82;55.20
48800;BME280;34611;47.964;7.982;2023-12-20T21:35:04;97017.72;;;10.83;55.33
48800;BME280;34611;47.964;7.982;2023-12-20T21:42:05;97022.91;;;10.83;55.06
48800;BME280;34611;47.964;7.982;2023-12-20T21:49:05;97014.28;;;10.82;55.11
48800;BME280;34611;47.964;7.982;2023-12-20T21:56:06;96997.06;;;10.81;55.29
48800;BME280;34611;47.964;7.982;2023-12-20T22:03:06;96991.72;;;10.83;55.17
48800;BME280;34611;47.964;7.982;2023-12-20T22:10:09;96979.53;;;10.83;55.20
48800;BME280;34611;47.964;7.982;2023-12-20T22:17:09;96979.66;;;10.82;55.13
48800;BME280;34611;47.964;7.982;2023-12-20T22:24:10;96980.50;;;10.82;55.36
48800;BME280;34611;47.964;7.982;2023-12-20T22:31:10;96981.31;;;10.83;55.10
48800;BME280;34611;47.964;7.982;2023-12-20T22:38:11;96961.47;;;10.82;55.22
48800;BME280;34611;47.964;7.982;2023-12-20T22:45:11;96956.28;;;10.82;55.14
48800;BME280;34611;47.964;7.982;2023-12-20T22:52:11;96946.69;;;10.82;55.22
48800;BME280;34611;47.964;7.982;2023-12-20T22:59:11;96944.19;;;10.81;55.36
48800;BME280;34611;47.964;7.982;2023-12-20T23:06:13;96947.66;;;10.81;55.40
48800;BME280;34611;47.964;7.982;2023-12-20T23:13:14;96937.09;;;10.83;55.42
48800;BME280;34611;47.964;7.982;2023-12-20T23:20:16;96917.25;;;10.82;55.44
48800;BME280;34611;47.964;7.982;2023-12-20T23:27:16;96898.09;;;10.83;55.22
48800;BME280;34611;47.964;7.982;2023-12-20T23:34:16;96886.88;;;10.82;55.29
48800;BME280;34611;47.964;7.982;2023-12-20T23:41:17;96867.84;;;10.82;55.20
48800;BME280;34611;47.964;7.982;2023-12-20T23:48:17;96829.66;;;10.82;55.49
48800;BME280;34611;47.964;7.982;2023-12-20T23:55:18;96828.03;;;10.81;55.43
